Time;durP1;ratioP1;P1;durP2;ratioP2;P2;SDS_P1;SDS_P2;PMS_P1;PMS_P2;Temp;Humidity;BMP_temperature;BMP_pressure;BME280_temperature;BME280_humidity;BME280_pressure;Samples;Min_cycle;Max_cycle;Signal;HPM_P1;HPM_P2
2022/03/01 08:42:27;;;;;;;26.38;9.48;;;;;;;1.90;82.90;102457.50;5029863;27;1423152;-53
2022/03/01 08:44:55;;;;;;;25.58;10.32;;;;;;;1.93;82.81;102446.94;5043274;28;20041;-50
2022/03/01 08:47:28;;;;;;;20.90;9.45;;;;;;;1.95;82.90;102446.66;5059947;28;20045;-53
2022/03/01 08:49:55;;;;;;;24.65;9.30;;;;;;;1.99;82.73;102447.81;5059667;28;20045;-50
2022/03/01 08:52:22;;;;;;;18.73;9.93;;;;;;;2.03;82.69;102451.72;5078066;28;20404;-51
2022/03/01 08:54:49;;;;;;;23.55;8.60;;;;;;;2.03;83.00;102440.81;5060692;28;20052;-54
2022/03/01 08:57:17;;;;;;;24.55;9.95;;;;;;;2.06;83.01;102457.53;5064841;28;20221;-52
2022/03/01 08:59:44;;;;;;;25.85;8.23;;;;;;;2.12;83.01;102450.25;5059860;28;20045;-57
2022/03/01 09:02:11;;;;;;;19.20;9.90;;;;;;;2.17;82.78;102450.34;5060980;28;20461;-53
2022/03/01 09:04:38;;;;;;;20.98;8.55;;;;;;;2.21;82.93;102455.06;5078293;28;20544;-53
2022/03/01 09:07:05;;;;;;;20.67;9.55;;;;;;;2.25;82.86;102448.00;5061821;28;20280;-57
2022/03/01 09:09:33;;;;;;;16.85;9.10;;;;;;;2.29;82.67;102451.91;5043007;28;20147;-52
2022/03/01 09:12:00;;;;;;;25.45;9.40;;;;;;;2.33;82.52;102453.06;5062504;28;20048;-51
2022/03/01 09:14:27;;;;;;;17.27;8.82;;;;;;;2.40;82.75;102452.91;5063623;28;20131;-57
2022/03/01 09:16:54;;;;;;;15.27;7.68;;;;;;;2.43;82.69;102452.41;5064647;28;20036;-58
2022/03/01 09:19:21;;;;;;;22.17;8.18;;;;;;;2.49;82.79;102450.59;5060864;28;20143;-57
2022/03/01 09:21:48;;;;;;;15.40;8.63;;;;;;;2.55;83.08;102455.84;5060510;28;20051;-50
2022/03/01 09:24:16;;;;;;;23.10;8.43;;;;;;;2.62;82.52;102463.91;5063724;28;20094;-60
2022/03/01 09:26:43;;;;;;;17.70;7.30;;;;;;;2.67;83.00;102473.00;5061640;28;20046;-55
2022/03/01 09:29:16;;;;;;;22.92;8.35;;;;;;;2.75;82.71;102469.03;5062871;28;20044;-54
2022/03/01 09:31:43;;;;;;;17.77;7.93;;;;;;;2.79;83.03;102465.53;5059300;28;20044;-56
2022/03/01 09:34:10;;;;;;;16.77;6.85;;;;;;;2.86;83.13;102477.09;5076184;28;20040;-54
2022/03/01 09:36:37;;;;;;;19.13;7.15;;;;;;;2.92;83.08;102467.06;5076481;28;20089;-55
2022/03/01 09:39:04;;;;;;;23.30;9.38;;;;;;;2.97;82.94;102462.50;5061362;28;20052;-52
2022/03/01 09:41:34;;;;;;;21.98;7.57;;;;;;;3.03;82.94;102461.50;5060938;28;20075;-50
2022/03/01 09:44:01;;;;;;;23.63;9.90;;;;;;;3.11;83.18;102464.84;5060577;28;21370;-52
2022/03/01 09:46:28;;;;;;;25.92;9.88;;;;;;;3.18;83.29;102471.00;5060117;28;20511;-54
2022/03/01 09:48:59;;;;;;;27.05;9.48;;;;;;;3.26;83.32;102467.78;5056999;28;20070;-55
2022/03/01 09:51:26;;;;;;;28.58;10.38;;;;;;;3.32;83.63;102464.03;5058976;28;20049;-54
2022/03/01 09:53:54;;;;;;;22.30;8.43;;;;;;;3.42;83.83;102455.94;5062225;28;20087;-59
2022/03/01 09:56:21;;;;;;;28.88;10.27;;;;;;;3.53;83.83;102468.66;5055944;28;20552;-55
2022/03/01 09:58:50;;;;;;;25.48;9.48;;;;;;;3.63;83.54;102463.31;5047871;28;20413;-52
2022/03/01 10:01:18;;;;;;;26.10;9.88;;;;;;;3.71;83.59;102465.59;5045872;28;20091;-58
2022/03/01 10:03:48;;;;;;;13.20;4.35;;;;;;;3.84;84.06;102459.69;5048254;28;20051;-52
2022/03/01 10:06:17;;;;;;;10.88;4.47;;;;;;;3.98;83.91;102466.41;5047066;28;20049;-51
2022/03/01 10:08:50;;;;;;;14.50;2.97;;;;;;;4.07;84.79;102473.09;5049525;28;20084;-53
2022/03/01 10:11:18;;;;;;;;;;;;;;;4.20;86.18;102458.13;5047699;28;20094;-62
2022/03/01 10:13:45;;;;;;;18.65;4.38;;;;;;;4.30;84.68;102469.19;5047729;28;20300;-57
2022/03/01 10:16:17;;;;;;;12.75;3.75;;;;;;;4.37;84.46;102460.75;5047515;28;20124;-59
2022/03/01 10:18:52;;;;;;;14.25;3.55;;;;;;;4.48;84.90;102460.53;5046930;28;20041;-58
2022/03/01 10:21:21;;;;;;;15.07;4.43;;;;;;;4.59;84.93;102464.19;5046581;28;20059;-59
2022/03/01 10:23:54;;;;;;;10.55;4.03;;;;;;;4.70;85.40;102453.03;5047670;28;20055;-52
2022/03/01 10:26:23;;;;;;;9.38;3.50;;;;;;;4.82;85.40;102472.03;5046497;28;20239;-61
2022/03/01 10:28:54;;;;;;;13.60;4.50;;;;;;;4.88;85.14;102460.00;5043995;28;20112;-58
2022/03/01 10:31:29;;;;;;;11.95;4.25;;;;;;;4.96;85.40;102456.75;5044529;28;20033;-58
2022/03/01 10:34:04;;;;;;;8.82;3.40;;;;;;;5.03;85.82;102468.31;5060005;28;20049;-59
2022/03/01 10:36:35;;;;;;;18.17;3.42;;;;;;;5.16;85.73;102467.03;5046108;28;20074;-57
2022/03/01 10:39:07;;;;;;;9.48;3.15;;;;;;;5.25;85.65;102466.22;5045005;28;20060;-57
2022/03/01 10:41:39;;;;;;;11.38;3.83;;;;;;;5.32;85.84;102463.25;5060423;28;20450;-55
2022/03/01 10:44:11;;;;;;;8.43;2.20;;;;;;;5.36;85.56;102462.44;5045976;28;20136;-55
2022/03/01 10:46:50;;;;;;;12.18;4.07;;;;;;;5.41;86.10;102447.91;5045231;28;20048;-55
2022/03/01 10:49:22;;;;;;;11.90;3.30;;;;;;;5.45;85.79;102455.31;5062673;28;20086;-56
2022/03/01 10:51:54;;;;;;;4.80;2.40;;;;;;;5.49;85.89;102445.47;5047221;28;20048;-55
2022/03/01 10:54:29;;;;;;;;;;;;;;;5.54;86.08;102452.88;5046218;28;20120;-55
2022/03/01 10:56:58;;;;;;;7.40;2.67;;;;;;;5.63;85.55;102431.22;5044472;28;19924;-58
2022/03/01 10:59:27;;;;;;;12.95;3.30;;;;;;;5.74;85.66;102419.16;5045371;28;20044;-56
2022/03/01 11:01:56;;;;;;;13.35;3.88;;;;;;;5.87;85.82;102424.16;5046569;28;20106;-55
2022/03/01 11:04:25;;;;;;;9.90;2.53;;;;;;;6.01;85.23;102419.78;5045247;28;20040;-58
2022/03/01 11:06:55;;;;;;;7.28;2.83;;;;;;;6.13;84.93;102428.56;5062321;28;20498;-55
2022/03/01 11:09:27;;;;;;;11.23;2.60;;;;;;;6.24;84.80;102421.97;5046159;28;20048;-55
2022/03/01 11:11:56;;;;;;;10.05;2.25;;;;;;;6.35;84.06;102425.53;5044733;28;20048;-51
2022/03/01 11:14:45;;;;;;;11.27;3.15;;;;;;;6.43;83.63;102413.97;5043463;28;20040;-55
2022/03/01 11:17:21;;;;;;;10.13;2.35;;;;;;;6.45;83.34;102409.84;5041641;28;20124;-56
2022/03/01 11:19:56;;;;;;;11.00;2.33;;;;;;;6.49;83.47;102415.59;5046063;28;20127;-56
2022/03/01 11:22:29;;;;;;;14.13;4.78;;;;;;;6.51;83.09;102405.97;5046799;28;20414;-60
2022/03/01 11:24:56;;;;;;;10.52;1.67;;;;;;;6.52;82.64;102415.88;5046787;28;20036;-56
2022/03/01 11:27:26;;;;;;;16.55;2.58;;;;;;;6.59;82.49;102410.91;5060738;28;20048;-57
2022/03/01 11:30:06;;;;;;;11.73;2.20;;;;;;;6.63;82.18;102412.03;5044914;28;20335;-56
2022/03/01 11:32:39;;;;;;;10.00;2.55;;;;;;;6.64;82.42;102405.44;5046716;28;20090;-56
2022/03/01 11:35:07;;;;;;;9.85;2.08;;;;;;;6.64;82.08;102399.91;5060155;28;20528;-56
2022/03/01 11:37:34;;;;;;;8.55;1.85;;;;;;;6.63;81.61;102403.75;5057973;28;20083;-55
2022/03/01 11:40:04;;;;;;;9.65;2.00;;;;;;;6.64;81.68;102408.19;5045842;28;20051;-60
2022/03/01 11:42:33;;;;;;;13.80;1.80;;;;;;;6.65;81.08;102407.06;5059481;28;20111;-54
2022/03/01 11:45:09;;;;;;;7.25;2.38;;;;;;;6.73;80.14;102402.91;5047275;28;20041;-57
2022/03/01 11:47:38;;;;;;;10.45;2.28;;;;;;;6.83;81.21;102393.81;5044530;28;20390;-52
2022/03/01 11:50:21;;;;;;;27.00;4.38;;;;;;;6.92;80.43;102403.13;5047325;28;20040;-59
2022/03/01 11:52:57;;;;;;;15.38;2.88;;;;;;;6.96;80.40;102394.03;5046856;28;20127;-57
2022/03/01 11:55:33;;;;;;;8.43;2.55;;;;;;;6.99;79.06;102398.97;5044551;28;20064;-58
2022/03/01 11:58:01;;;;;;;9.52;1.63;;;;;;;7.03;80.10;102388.22;5047565;28;20124;-51
2022/03/01 12:00:29;;;;;;;11.27;1.75;;;;;;;7.05;79.75;102383.25;5044768;28;20040;-54
2022/03/01 12:02:59;;;;;;;8.82;2.05;;;;;;;7.08;79.17;102378.00;5046534;28;20168;-57
2022/03/01 12:05:27;;;;;;;12.80;1.73;;;;;;;7.14;79.92;102384.31;5045705;28;20464;-56
2022/03/01 12:07:54;;;;;;;10.88;1.67;;;;;;;7.17;78.66;102384.59;5046736;28;20151;-55
2022/03/01 12:10:57;;;;;;;5.30;1.17;;;;;;;7.20;76.19;102389.50;5060457;28;20045;-54
2022/03/01 12:13:45;;;;;;;17.95;2.47;;;;;;;7.17;76.17;102373.56;5042425;28;20521;-60
2022/03/01 12:16:25;;;;;;;13.98;2.97;;;;;;;7.17;77.75;102378.25;5042370;28;21138;-52
2022/03/01 12:19:05;;;;;;;11.75;1.98;;;;;;;7.16;76.59;102371.09;5042929;28;20045;-60
2022/03/01 12:21:33;;;;;;;9.93;1.92;;;;;;;7.14;77.67;102362.28;5045181;28;20119;-60
2022/03/01 12:24:00;;;;;;;5.20;1.80;;;;;;;7.17;76.96;102361.72;5045500;28;20060;-58
2022/03/01 12:26:27;;;;;;;11.10;2.40;;;;;;;7.18;76.86;102357.84;5044187;28;20052;-52
2022/03/01 12:28:59;;;;;;;9.18;2.85;;;;;;;7.17;75.05;102365.31;5044978;28;20068;-53
2022/03/01 12:31:29;;;;;;;4.70;2.08;;;;;;;7.20;75.49;102366.69;5044747;28;20048;-53
2022/03/01 12:34:02;;;;;;;7.95;1.20;;;;;;;7.21;73.47;102373.81;5060352;28;20048;-55
2022/03/01 12:36:32;;;;;;;8.73;1.27;;;;;;;7.28;74.21;102361.38;5045097;28;20099;-54
2022/03/01 12:39:11;;;;;;;6.63;1.80;;;;;;;7.37;73.34;102356.09;5043681;28;20060;-56
2022/03/01 12:41:47;;;;;;;6.63;1.52;;;;;;;7.45;74.66;102352.75;5042352;28;20063;-50
2022/03/01 12:44:18;;;;;;;8.20;1.75;;;;;;;7.49;74.57;102359.34;5044553;28;20055;-53
2022/03/01 12:46:45;;;;;;;15.95;2.47;;;;;;;7.58;74.38;102354.88;5044064;28;20505;-51
2022/03/01 12:49:14;;;;;;;19.77;2.95;;;;;;;7.63;74.15;102343.81;5044092;28;20044;-50
2022/03/01 12:51:43;;;;;;;5.35;1.33;;;;;;;7.67;74.12;102333.03;5058842;28;20124;-55
2022/03/01 12:54:16;;;;;;;10.30;1.67;;;;;;;7.69;72.43;102348.19;5043598;28;20051;-56
2022/03/01 12:56:50;;;;;;;5.30;1.27;;;;;;;7.78;72.35;102338.16;5042079;28;20056;-59
2022/03/01 12:59:20;;;;;;;12.88;1.80;;;;;;;7.95;72.87;102333.06;5044688;28;20072;-57
2022/03/01 13:01:52;;;;;;;9.07;1.60;;;;;;;8.07;72.61;102340.16;5044690;28;20052;-53
2022/03/01 13:04:23;;;;;;;11.32;3.13;;;;;;;8.07;72.69;102334.63;5062775;28;20044;-59
2022/03/01 13:06:50;;;;;;;6.30;3.08;;;;;;;8.14;72.77;102326.84;5044039;28;20059;-56
2022/03/01 13:09:17;;;;;;;9.50;2.60;;;;;;;8.12;71.74;102318.03;5044471;28;20432;-55
2022/03/01 13:11:45;;;;;;;10.23;2.13;;;;;;;8.16;71.92;102324.59;5041460;28;20514;-52
2022/03/01 13:14:16;;;;;;;8.23;1.20;;;;;;;8.20;70.87;102314.66;5045202;28;20059;-53
2022/03/01 13:16:49;;;;;;;9.47;1.80;;;;;;;8.24;70.28;102307.41;5044923;28;20048;-51
2022/03/01 13:19:28;;;;;;;9.18;1.00;;;;;;;8.27;66.33;102313.22;5045449;28;20459;-55
2022/03/01 13:22:07;;;;;;;11.25;1.80;;;;;;;8.30;68.81;102314.56;5044697;28;20132;-52
2022/03/01 13:24:37;;;;;;;8.88;1.77;;;;;;;8.29;67.93;102310.16;5043481;28;20048;-51
2022/03/01 13:27:13;;;;;;;11.02;2.92;;;;;;;8.29;68.14;102296.34;5045623;28;20044;-57
2022/03/01 13:29:41;;;;;;;12.55;2.28;;;;;;;8.38;68.89;102300.13;5048835;28;20052;-58
2022/03/01 13:32:10;;;;;;;11.13;1.52;;;;;;;8.43;68.64;102291.78;5047384;28;20044;-57
2022/03/01 13:34:40;;;;;;;5.43;1.80;;;;;;;8.45;68.56;102289.56;5046673;28;20095;-53
2022/03/01 13:37:14;;;;;;;9.13;2.15;;;;;;;8.55;68.85;102286.69;5047492;28;20566;-54
2022/03/01 13:39:44;;;;;;;5.68;2.22;;;;;;;8.62;69.12;102287.16;5044626;28;20094;-53
2022/03/01 13:42:13;;;;;;;8.90;1.45;;;;;;;8.63;68.86;102280.50;5048069;28;20577;-55
2022/03/01 13:44:44;;;;;;;6.47;1.70;;;;;;;8.64;68.66;102265.59;5047674;28;20041;-53
2022/03/01 13:47:19;;;;;;;16.63;2.67;;;;;;;8.70;68.23;102272.69;5045262;28;20045;-51
2022/03/01 13:49:54;;;;;;;6.10;1.38;;;;;;;8.86;67.82;102262.28;5045357;28;20133;-55
2022/03/01 13:52:26;;;;;;;7.85;1.50;;;;;;;8.94;66.70;102258.84;5045156;28;20040;-55
2022/03/01 13:55:17;;;;;;;8.75;1.17;;;;;;;8.91;65.51;102268.56;5045794;28;20045;-51
2022/03/01 13:57:50;;;;;;;7.57;1.20;;;;;;;8.94;66.67;102269.91;5039387;28;20036;-49
2022/03/01 14:00:37;;;;;;;4.70;1.25;;;;;;;8.89;64.67;102262.50;5044245;28;20090;-49
2022/03/01 14:03:12;;;;;;;4.20;1.10;;;;;;;8.84;66.13;102254.28;5044907;28;20041;-54
2022/03/01 14:05:45;;;;;;;10.38;1.45;;;;;;;8.87;65.66;102247.38;5043220;28;20060;-57
2022/03/01 14:08:17;;;;;;;8.20;1.65;;;;;;;8.96;66.42;102251.91;5044049;28;20125;-51
2022/03/01 14:10:58;;;;;;;5.05;1.17;;;;;;;8.97;65.28;102242.53;5046319;28;20045;-55
2022/03/01 14:13:30;;;;;;;6.83;1.80;;;;;;;9.06;65.96;102239.88;5047832;28;20438;-52
2022/03/01 14:16:19;;;;;;;7.78;1.52;;;;;;;9.07;64.65;102236.00;5046258;28;20639;-50
2022/03/01 14:18:49;;;;;;;5.45;2.03;;;;;;;9.08;65.96;102238.47;5048016;28;20168;-55
2022/03/01 14:21:21;;;;;;;12.75;2.55;;;;;;;9.04;65.76;102234.66;5044078;28;20041;-48
2022/03/01 14:23:47;;;;;;;7.27;2.10;;;;;;;8.99;66.41;102231.97;5049822;28;20171;-56
2022/03/01 14:26:15;;;;;;;5.93;1.67;;;;;;;8.95;66.22;102222.63;5048251;28;20480;-53
2022/03/01 14:28:55;;;;;;;19.85;3.55;;;;;;;8.88;64.60;102227.72;5045487;28;20049;-55
2022/03/01 14:31:23;;;;;;;12.95;2.20;;;;;;;9.02;65.75;102220.34;5047019;28;20110;-49
2022/03/01 14:33:50;;;;;;;8.75;1.73;;;;;;;9.08;65.15;102212.81;5063159;28;20457;-54
2022/03/01 14:36:18;;;;;;;8.57;1.60;;;;;;;9.12;65.32;102206.38;5044608;28;20075;-51
2022/03/01 14:38:45;;;;;;;9.65;2.25;;;;;;;9.21;65.03;102209.28;5048119;28;20041;-53
2022/03/01 14:41:14;;;;;;;7.47;1.80;;;;;;;9.23;65.34;102200.69;5047229;28;20056;-49
2022/03/01 14:43:41;;;;;;;9.82;3.35;;;;;;;9.25;65.84;102202.00;5045629;28;20393;-48
2022/03/01 14:46:08;;;;;;;7.05;1.92;;;;;;;9.31;65.40;102203.59;5048257;28;20128;-54
2022/03/01 14:48:35;;;;;;;7.47;2.20;;;;;;;9.32;65.38;102198.88;5046667;28;20114;-57
2022/03/01 14:51:02;;;;;;;4.25;1.83;;;;;;;9.25;64.78;102192.91;5047665;28;20076;-51
2022/03/01 14:53:29;;;;;;;16.27;2.25;;;;;;;9.24;64.91;102191.28;5044694;28;20033;-56
2022/03/01 14:55:56;;;;;;;12.38;2.00;;;;;;;9.34;65.24;102185.56;5046574;28;20510;-50
2022/03/01 14:58:23;;;;;;;13.68;2.40;;;;;;;9.35;65.33;102185.25;5049037;28;20125;-53
2022/03/01 15:00:49;;;;;;;13.13;2.17;;;;;;;9.31;65.28;102184.25;5043827;28;20093;-51
2022/03/01 15:03:17;;;;;;;12.55;2.70;;;;;;;9.36;65.60;102183.31;5046323;28;20041;-53
2022/03/01 15:05:45;;;;;;;12.68;1.90;;;;;;;9.35;65.39;102162.31;5045087;28;20128;-53
2022/03/01 15:08:13;;;;;;;10.48;2.08;;;;;;;9.41;65.49;102166.66;5046635;28;20514;-52
2022/03/01 15:10:40;;;;;;;10.23;2.38;;;;;;;9.49;65.52;102165.97;5047117;28;20167;-50
2022/03/01 15:13:07;;;;;;;10.60;1.63;;;;;;;9.57;65.53;102168.03;5046949;28;20049;-52
2022/03/01 15:15:35;;;;;;;10.63;2.33;;;;;;;9.61;64.98;102152.47;5043280;28;20131;-49
2022/03/01 15:18:02;;;;;;;12.13;2.03;;;;;;;9.47;64.21;102168.22;5046067;28;20040;-50
2022/03/01 15:20:29;;;;;;;9.85;2.33;;;;;;;9.41;64.62;102159.19;5044349;28;20517;-52
2022/03/01 15:22:56;;;;;;;8.57;1.85;;;;;;;9.41;64.47;102144.53;5044320;28;20643;-51
2022/03/01 15:25:23;;;;;;;17.73;3.42;;;;;;;9.36;64.39;102150.16;5045223;28;20120;-49
2022/03/01 15:27:50;;;;;;;7.63;1.90;;;;;;;9.18;63.46;102149.91;5044009;28;21767;-50
2022/03/01 15:30:19;;;;;;;10.82;2.17;;;;;;;9.00;63.99;102147.97;5048456;28;20416;-57
2022/03/01 15:32:46;;;;;;;10.07;3.05;;;;;;;8.92;64.40;102145.88;5044996;28;20047;-56
2022/03/01 15:35:15;;;;;;;8.75;1.80;;;;;;;8.75;63.89;102134.56;5060175;28;20144;-49
2022/03/01 15:37:43;;;;;;;8.40;2.10;;;;;;;8.63;63.97;102125.09;5062295;28;20139;-55
2022/03/01 15:40:12;;;;;;;11.48;3.10;;;;;;;8.47;64.15;102116.22;5044622;28;20389;-54
2022/03/01 15:42:39;;;;;;;16.08;2.75;;;;;;;8.36;64.19;102111.97;5043215;28;20133;-49
2022/03/01 15:45:07;;;;;;;19.35;2.60;;;;;;;8.32;64.17;102110.91;5043422;28;20041;-56
2022/03/01 15:47:36;;;;;;;10.02;3.47;;;;;;;8.19;64.12;102103.31;5042506;28;20076;-53
2022/03/01 15:50:04;;;;;;;11.23;3.35;;;;;;;8.02;63.93;102103.00;5045438;28;20041;-52
2022/03/01 15:52:32;;;;;;;7.05;2.38;;;;;;;7.93;64.06;102094.56;5042920;28;20048;-52
2022/03/01 15:54:59;;;;;;;15.18;2.65;;;;;;;7.92;64.46;102104.75;5043839;28;20041;-57
2022/03/01 15:57:27;;;;;;;12.25;1.90;;;;;;;7.88;64.86;102097.38;5041205;28;20651;-54
2022/03/01 15:59:54;;;;;;;10.85;2.15;;;;;;;7.82;65.01;102096.63;5045035;28;20188;-53
2022/03/01 16:02:21;;;;;;;18.02;3.85;;;;;;;7.81;65.10;102096.94;5045507;28;20079;-59
2022/03/01 16:04:49;;;;;;;9.95;2.47;;;;;;;7.84;65.68;102102.66;5045580;28;20140;-59
2022/03/01 16:07:16;;;;;;;11.20;1.85;;;;;;;7.81;65.82;102097.72;5058020;28;20043;-53
2022/03/01 16:09:43;;;;;;;10.18;2.88;;;;;;;7.72;65.87;102109.69;5048068;28;20102;-49
2022/03/01 16:12:11;;;;;;;12.07;5.13;;;;;;;7.62;66.07;102091.34;5044025;28;20578;-54
2022/03/01 16:14:38;;;;;;;12.18;3.85;;;;;;;7.59;66.31;102100.19;5046431;28;20041;-53
2022/03/01 16:17:06;;;;;;;14.07;2.88;;;;;;;7.59;66.61;102086.44;5041402;28;20050;-52
2022/03/01 16:19:37;;;;;;;16.02;2.53;;;;;;;7.52;65.75;102085.94;5042768;28;20040;-53
2022/03/01 16:22:07;;;;;;;7.40;2.67;;;;;;;7.45;65.79;102081.88;5044251;28;20053;-54
2022/03/01 16:24:34;;;;;;;10.60;4.22;;;;;;;7.42;65.73;102091.56;5055053;28;20480;-52
2022/03/01 16:27:03;;;;;;;6.20;2.13;;;;;;;7.40;66.05;102074.50;5043858;28;20039;-55
2022/03/01 16:29:30;;;;;;;18.13;3.17;;;;;;;7.38;66.02;102085.00;5045830;28;20127;-57
2022/03/01 16:31:58;;;;;;;8.82;2.45;;;;;;;7.38;66.41;102073.97;5045482;28;20040;-50
2022/03/01 16:34:30;;;;;;;7.00;2.03;;;;;;;7.33;66.13;102074.81;5047172;28;20125;-52
2022/03/01 16:36:57;;;;;;;14.20;3.65;;;;;;;7.29;66.47;102072.97;5043666;28;20041;-53
2022/03/01 16:39:26;;;;;;;8.27;2.25;;;;;;;7.21;66.57;102065.31;5047105;28;20480;-57
2022/03/01 16:41:53;;;;;;;6.25;2.60;;;;;;;7.17;66.70;102072.53;5041822;28;20734;-57
2022/03/01 16:44:21;;;;;;;12.95;2.83;;;;;;;7.12;66.50;102078.91;5043649;28;20093;-53
2022/03/01 16:46:49;;;;;;;7.82;1.67;;;;;;;7.07;66.71;102064.38;5043382;28;20462;-52
2022/03/01 16:49:16;;;;;;;9.95;2.42;;;;;;;7.02;66.34;102061.66;5044245;28;20462;-53
2022/03/01 16:51:44;;;;;;;9.57;1.60;;;;;;;7.00;66.97;102063.88;5046079;28;20505;-53
2022/03/01 16:54:11;;;;;;;8.20;1.90;;;;;;;6.95;66.52;102063.94;5043499;28;20511;-52
2022/03/01 16:56:40;;;;;;;12.90;3.38;;;;;;;6.92;66.33;102072.75;5041194;28;20049;-55
2022/03/01 16:59:07;;;;;;;9.68;1.33;;;;;;;6.86;66.48;102074.72;5047667;28;20037;-58
2022/03/01 17:01:35;;;;;;;7.30;2.25;;;;;;;6.81;66.57;102082.19;5043039;28;20135;-54
2022/03/01 17:04:05;;;;;;;6.07;1.73;;;;;;;6.79;66.63;102084.44;5048119;28;20060;-58
2022/03/01 17:06:33;;;;;;;8.88;3.28;;;;;;;6.77;66.54;102083.91;5046079;28;20041;-59
2022/03/01 17:09:09;;;;;;;9.88;1.88;;;;;;;6.74;66.70;102088.88;5050334;28;20062;-56
2022/03/01 17:11:41;;;;;;;9.52;2.10;;;;;;;6.72;66.55;102096.56;5047240;28;20045;-60
2022/03/01 17:14:09;;;;;;;;;;;;;;;6.67;66.89;102082.84;5047787;28;20043;-52
2022/03/01 17:16:36;;;;;;;5.93;3.28;;;;;;;6.69;66.96;102090.84;5049094;28;19930;-50
2022/03/01 17:19:04;;;;;;;9.55;4.15;;;;;;;6.63;67.03;102086.47;5048358;28;20991;-59
2022/03/01 17:21:31;;;;;;;11.05;3.67;;;;;;;6.62;66.99;102084.81;5048189;28;20040;-54
2022/03/01 17:24:18;;;;;;;11.25;2.50;;;;;;;6.59;67.01;102086.22;5047281;28;20048;-54
2022/03/01 17:26:46;;;;;;;8.80;2.58;;;;;;;6.56;66.70;102094.25;5046164;28;20135;-53
2022/03/01 17:29:13;;;;;;;10.35;1.90;;;;;;;6.51;66.85;102084.06;5049271;28;20063;-54
2022/03/01 17:31:43;;;;;;;5.45;1.30;;;;;;;6.46;66.88;102091.56;5047888;28;20131;-51
2022/03/01 17:34:10;;;;;;;8.02;2.53;;;;;;;6.42;66.93;102084.97;5042612;28;20049;-50
2022/03/01 17:36:37;;;;;;;21.42;2.78;;;;;;;6.40;67.07;102090.75;5048490;28;20079;-50
2022/03/01 17:39:06;;;;;;;6.43;1.70;;;;;;;6.39;67.33;102097.34;5049289;28;20120;-58
2022/03/01 17:41:33;;;;;;;23.55;4.13;;;;;;;6.36;67.54;102097.94;5048739;28;20051;-55
2022/03/01 17:44:00;;;;;;;12.73;2.65;;;;;;;6.32;67.35;102102.38;5050176;28;20052;-58
2022/03/01 17:46:27;;;;;;;12.80;3.25;;;;;;;6.29;67.71;102108.44;5049058;28;20461;-55
2022/03/01 17:48:55;;;;;;;12.13;3.15;;;;;;;6.26;67.75;102098.00;5047680;28;20060;-56
2022/03/01 17:51:22;;;;;;;19.77;5.60;;;;;;;6.26;68.02;102109.00;5046995;28;20429;-57
2022/03/01 17:53:49;;;;;;;20.75;6.28;;;;;;;6.25;67.90;102096.34;5047624;28;20041;-56
2022/03/01 17:56:16;;;;;;;16.38;5.88;;;;;;;6.26;68.26;102097.16;5045490;28;20451;-56
2022/03/01 17:58:43;;;;;;;14.80;5.60;;;;;;;6.21;68.74;102092.53;5047996;28;20052;-61
2022/03/01 18:01:10;;;;;;;13.32;5.50;;;;;;;6.17;68.67;102093.38;5062763;28;20441;-56
2022/03/01 18:03:37;;;;;;;19.70;5.80;;;;;;;6.13;69.02;102098.59;5047110;28;20087;-60
2022/03/01 18:06:05;;;;;;;16.77;5.95;;;;;;;6.12;68.75;102091.47;5046483;28;20062;-55
2022/03/01 18:08:32;;;;;;;16.05;5.95;;;;;;;6.05;69.19;102094.53;5047583;28;20620;-57
2022/03/01 18:10:59;;;;;;;14.45;3.97;;;;;;;6.01;69.31;102081.63;5063705;28;20140;-56
2022/03/01 18:13:26;;;;;;;13.68;4.65;;;;;;;5.99;69.52;102083.81;5061948;28;20044;-57
2022/03/01 18:15:53;;;;;;;8.85;3.30;;;;;;;5.93;69.64;102079.47;5049335;28;20165;-56
2022/03/01 18:18:23;;;;;;;13.68;3.78;;;;;;;5.90;69.72;102069.88;5046914;28;20053;-60
2022/03/01 18:20:54;;;;;;;12.48;3.58;;;;;;;5.85;69.85;102074.56;5046913;28;20124;-56
2022/03/01 18:23:23;;;;;;;11.60;2.73;;;;;;;5.86;69.71;102070.69;5048869;28;21009;-60
2022/03/01 18:25:54;;;;;;;14.48;4.10;;;;;;;5.82;69.91;102067.66;5047788;28;20068;-57
2022/03/01 18:28:25;;;;;;;19.65;6.32;;;;;;;5.83;69.83;102068.47;5045709;28;20076;-55
2022/03/01 18:30:53;;;;;;;15.00;5.20;;;;;;;5.80;69.52;102064.34;5058626;28;20136;-59
2022/03/01 18:33:21;;;;;;;17.63;6.00;;;;;;;5.77;69.79;102053.13;5047015;28;20052;-59
2022/03/01 18:35:49;;;;;;;15.70;4.65;;;;;;;5.73;70.00;102050.09;5031643;28;20040;-56
2022/03/01 18:38:17;;;;;;;12.88;4.22;;;;;;;5.69;69.94;102056.44;5046277;28;21026;-52
2022/03/01 18:40:44;;;;;;;13.88;3.72;;;;;;;5.66;70.34;102054.25;5045557;28;20053;-55
2022/03/01 18:43:12;;;;;;;11.90;4.35;;;;;;;5.66;70.19;102048.78;5044515;28;20045;-58
2022/03/01 18:45:41;;;;;;;13.40;3.97;;;;;;;5.64;70.39;102045.50;5047697;28;21908;-61
2022/03/01 18:48:10;;;;;;;13.30;4.57;;;;;;;5.63;70.79;102043.84;5046575;28;20099;-51
2022/03/01 18:50:38;;;;;;;8.80;2.13;;;;;;;5.63;70.43;102043.84;5039750;28;20045;-51
2022/03/01 18:53:06;;;;;;;9.02;3.42;;;;;;;5.63;70.96;102052.91;5047034;28;20048;-52
2022/03/01 18:55:34;;;;;;;14.65;3.00;;;;;;;5.63;71.09;102043.84;5044553;28;20037;-50
2022/03/01 18:58:01;;;;;;;9.27;2.45;;;;;;;5.63;71.01;102049.31;5041065;28;20037;-54
2022/03/01 19:00:28;;;;;;;7.80;2.50;;;;;;;5.63;71.13;102043.84;5043787;28;20041;-54
2022/03/01 19:02:56;;;;;;;10.93;3.72;;;;;;;5.62;71.37;102050.41;5042583;28;20032;-54
2022/03/01 19:05:23;;;;;;;13.90;4.80;;;;;;;5.61;71.42;102044.13;5043024;28;20095;-54
2022/03/01 19:07:50;;;;;;;10.75;2.47;;;;;;;5.61;71.92;102046.03;5042881;28;20049;-52
2022/03/01 19:10:19;;;;;;;11.05;2.78;;;;;;;5.59;71.79;102042.75;5042828;28;20520;-60
2022/03/01 19:12:46;;;;;;;9.60;2.88;;;;;;;5.59;71.93;102029.81;5040560;28;20107;-53
2022/03/01 19:15:14;;;;;;;11.90;4.43;;;;;;;5.60;72.10;102044.38;5059756;28;20410;-52
2022/03/01 19:17:42;;;;;;;15.35;3.05;;;;;;;5.61;72.14;102035.06;5043157;28;20049;-54
2022/03/01 19:20:11;;;;;;;10.68;2.30;;;;;;;5.58;72.70;102038.34;5045192;28;20036;-53
2022/03/01 19:22:39;;;;;;;15.07;3.28;;;;;;;5.59;72.97;102026.28;5045936;28;20393;-59
2022/03/01 19:25:07;;;;;;;10.15;2.30;;;;;;;5.56;73.31;102032.31;5044725;28;20057;-53
2022/03/01 19:27:34;;;;;;;12.95;3.38;;;;;;;5.58;73.36;102032.88;5043149;28;20049;-59
2022/03/01 19:30:05;;;;;;;13.85;2.50;;;;;;;5.56;73.66;102029.59;5047719;28;20077;-57
2022/03/01 19:32:32;;;;;;;11.25;2.40;;;;;;;5.57;73.71;102031.22;5047551;28;20033;-53
2022/03/01 19:35:04;;;;;;;10.70;2.90;;;;;;;5.57;73.82;102031.22;5045769;28;20040;-54
2022/03/01 19:37:31;;;;;;;13.55;1.95;;;;;;;5.58;73.94;102028.19;5045905;28;20037;-52
2022/03/01 19:39:58;;;;;;;14.57;3.13;;;;;;;5.57;74.22;102033.94;5044071;28;20040;-56
2022/03/01 19:42:25;;;;;;;14.45;3.45;;;;;;;5.56;74.04;102035.88;5043940;28;20062;-59
2022/03/01 19:44:52;;;;;;;11.18;2.80;;;;;;;5.56;74.56;102037.81;5043028;28;20049;-53
2022/03/01 19:47:19;;;;;;;14.50;3.25;;;;;;;5.55;74.54;102031.50;5041904;28;20037;-51
2022/03/01 19:49:47;;;;;;;11.05;2.15;;;;;;;5.54;74.94;102022.44;5061393;28;20506;-52
2022/03/01 19:52:14;;;;;;;10.02;3.30;;;;;;;5.54;74.87;102030.66;5042639;28;20099;-55
2022/03/01 19:54:42;;;;;;;16.48;3.10;;;;;;;5.54;75.24;102016.94;5042164;28;20044;-57
2022/03/01 19:57:09;;;;;;;14.77;2.78;;;;;;;5.56;75.46;102026.84;5041756;28;20079;-55
2022/03/01 19:59:37;;;;;;;14.07;3.13;;;;;;;5.57;75.66;102017.47;5039239;28;20654;-53
2022/03/01 20:02:04;;;;;;;10.88;2.78;;;;;;;5.58;75.47;102022.72;5043609;28;20049;-55
2022/03/01 20:04:31;;;;;;;11.90;2.20;;;;;;;5.60;75.85;102011.41;5042197;28;20045;-57
2022/03/01 20:06:58;;;;;;;8.98;2.85;;;;;;;5.61;75.45;102007.59;5043458;28;20111;-58
2022/03/01 20:09:25;;;;;;;13.73;3.58;;;;;;;5.62;75.56;102000.97;5043292;28;20500;-51
2022/03/01 20:11:52;;;;;;;12.82;3.15;;;;;;;5.60;75.64;102005.94;5043190;28;20045;-56
2022/03/01 20:14:21;;;;;;;15.52;3.70;;;;;;;5.58;75.71;101984.25;5053300;28;20041;-51
2022/03/01 20:16:49;;;;;;;16.92;6.90;;;;;;;5.58;75.82;101986.16;5041377;28;20048;-54
2022/03/01 20:19:16;;;;;;;12.93;4.15;;;;;;;5.57;76.02;101981.75;5043070;28;20501;-53
2022/03/01 20:21:43;;;;;;;14.77;3.90;;;;;;;5.55;76.37;101984.81;5041660;28;20789;-51